sensor_id;sensor_type;location;lat;lon;timestamp;temperature;humidity
25410;DHT22;13339;50.840;4.346;2023-05-10T00:02:25;15.90;99.90
25410;DHT22;13339;50.840;4.346;2023-05-10T00:04:50;15.90;99.90
25410;DHT22;13339;50.840;4.346;2023-05-10T00:07:16;16.00;99.90
25410;DHT22;13339;50.840;4.346;2023-05-10T00:09:43;16.00;99.90
25410;DHT22;13339;50.840;4.346;2023-05-10T00:12:09;16.00;99.90
25410;DHT22;13339;50.840;4.346;2023-05-10T00:14:35;16.10;99.90
25410;DHT22;13339;50.840;4.346;2023-05-10T00:17:00;16.20;99.90
25410;DHT22;13339;50.840;4.346;2023-05-10T00:19:26;16.10;99.90
25410;DHT22;13339;50.840;4.346;2023-05-10T00:21:52;16.10;99.90
25410;DHT22;13339;50.840;4.346;2023-05-10T00:24:17;16.10;99.90
25410;DHT22;13339;50.840;4.346;2023-05-10T00:26:43;16.20;99.90
25410;DHT22;13339;50.840;4.346;2023-05-10T00:29:09;16.10;99.90
25410;DHT22;13339;50.840;4.346;2023-05-10T00:31:34;16.10;99.90
25410;DHT22;13339;50.840;4.346;2023-05-10T00:34:00;16.00;99.90
25410;DHT22;13339;50.840;4.346;2023-05-10T00:36:25;16.10;99.90
25410;DHT22;13339;50.840;4.346;2023-05-10T00:38:51;16.10;99.90
25410;DHT22;13339;50.840;4.346;2023-05-10T00:41:17;16.00;99.90
25410;DHT22;13339;50.840;4.346;2023-05-10T00:43:42;16.00;99.90
25410;DHT22;13339;50.840;4.346;2023-05-10T00:46:08;16.00;99.90
25410;DHT22;13339;50.840;4.346;2023-05-10T00:48:34;16.00;99.90
25410;DHT22;13339;50.840;4.346;2023-05-10T00:51:01;16.00;99.90
25410;DHT22;13339;50.840;4.346;2023-05-10T00:53:27;16.00;99.90
25410;DHT22;13339;50.840;4.346;2023-05-10T00:55:53;16.10;99.90
25410;DHT22;13339;50.840;4.346;2023-05-10T00:58:18;16.00;99.90
25410;DHT22;13339;50.840;4.346;2023-05-10T01:00:46;16.00;99.90
25410;DHT22;13339;50.840;4.346;2023-05-10T01:03:13;16.00;99.90
25410;DHT22;13339;50.840;4.346;2023-05-10T01:05:39;16.00;99.90
25410;DHT22;13339;50.840;4.346;2023-05-10T01:08:05;16.10;99.90
25410;DHT22;13339;50.840;4.346;2023-05-10T01:10:31;16.10;99.90
25410;DHT22;13339;50.840;4.346;2023-05-10T01:12:58;16.10;99.90
25410;DHT22;13339;50.840;4.346;2023-05-10T01:15:24;16.10;99.90
25410;DHT22;13339;50.840;4.346;2023-05-10T01:17:51;16.10;99.90
25410;DHT22;13339;50.840;4.346;2023-05-10T01:20:17;16.10;99.90
25410;DHT22;13339;50.840;4.346;2023-05-10T01:34:32;16.00;99.90
25410;DHT22;13339;50.840;4.346;2023-05-10T01:37:07;15.90;99.90
25410;DHT22;13339;50.840;4.346;2023-05-10T01:39:55;15.90;99.90
25410;DHT22;13339;50.840;4.346;2023-05-10T01:42:31;15.90;99.90
25410;DHT22;13339;50.840;4.346;2023-05-10T01:45:30;16.00;99.90
25410;DHT22;13339;50.840;4.346;2023-05-10T01:48:10;16.10;99.90
25410;DHT22;13339;50.840;4.346;2023-05-10T01:50:40;16.00;99.90
25410;DHT22;13339;50.840;4.346;2023-05-10T01:53:08;16.10;99.90
25410;DHT22;13339;50.840;4.346;2023-05-10T01:55:39;16.10;99.90
25410;DHT22;13339;50.840;4.346;2023-05-10T01:58:09;16.10;99.90
25410;DHT22;13339;50.840;4.346;2023-05-10T02:00:36;16.10;99.90
25410;DHT22;13339;50.840;4.346;2023-05-10T02:03:06;16.00;99.90
25410;DHT22;13339;50.840;4.346;2023-05-10T02:05:33;16.00;99.90
25410;DHT22;13339;50.840;4.346;2023-05-10T02:08:01;16.00;99.90
25410;DHT22;13339;50.840;4.346;2023-05-10T02:10:29;16.00;99.90
25410;DHT22;13339;50.840;4.346;2023-05-10T02:12:58;16.00;99.90
25410;DHT22;13339;50.840;4.346;2023-05-10T02:15:25;16.00;99.90
25410;DHT22;13339;50.840;4.346;2023-05-10T02:17:54;15.90;99.90
25410;DHT22;13339;50.840;4.346;2023-05-10T02:20:20;16.00;99.90
25410;DHT22;13339;50.840;4.346;2023-05-10T02:22:52;16.00;99.90
25410;DHT22;13339;50.840;4.346;2023-05-10T02:25:19;16.00;99.90
25410;DHT22;13339;50.840;4.346;2023-05-10T02:27:47;16.00;99.90
25410;DHT22;13339;50.840;4.346;2023-05-10T02:30:14;16.00;99.90
25410;DHT22;13339;50.840;4.346;2023-05-10T02:32:41;16.10;99.90
25410;DHT22;13339;50.840;4.346;2023-05-10T02:35:08;16.00;99.90
25410;DHT22;13339;50.840;4.346;2023-05-10T02:37:37;15.90;99.90
25410;DHT22;13339;50.840;4.346;2023-05-10T02:40:03;15.90;99.90
25410;DHT22;13339;50.840;4.346;2023-05-10T02:42:32;16.00;99.90
25410;DHT22;13339;50.840;4.346;2023-05-10T02:45:04;16.00;99.90
25410;DHT22;13339;50.840;4.346;2023-05-10T02:47:30;15.90;99.90
25410;DHT22;13339;50.840;4.346;2023-05-10T02:49:56;16.00;99.90
25410;DHT22;13339;50.840;4.346;2023-05-10T02:52:28;16.10;99.90
25410;DHT22;13339;50.840;4.346;2023-05-10T02:54:58;16.10;99.90
25410;DHT22;13339;50.840;4.346;2023-05-10T02:57:32;16.10;99.90
25410;DHT22;13339;50.840;4.346;2023-05-10T02:59:59;16.00;99.90
25410;DHT22;13339;50.840;4.346;2023-05-10T03:02:26;16.00;99.90
25410;DHT22;13339;50.840;4.346;2023-05-10T03:04:51;16.00;99.90
25410;DHT22;13339;50.840;4.346;2023-05-10T03:07:17;16.00;99.90
25410;DHT22;13339;50.840;4.346;2023-05-10T03:09:44;16.10;99.90
25410;DHT22;13339;50.840;4.346;2023-05-10T03:12:23;16.20;99.90
25410;DHT22;13339;50.840;4.346;2023-05-10T03:17:47;16.10;99.90
25410;DHT22;13339;50.840;4.346;2023-05-10T03:20:20;16.00;99.90
25410;DHT22;13339;50.840;4.346;2023-05-10T03:23:15;16.00;99.90
25410;DHT22;13339;50.840;4.346;2023-05-10T03:25:44;15.90;99.90
25410;DHT22;13339;50.840;4.346;2023-05-10T03:28:14;15.90;99.90
25410;DHT22;13339;50.840;4.346;2023-05-10T03:30:41;15.90;99.90
25410;DHT22;13339;50.840;4.346;2023-05-10T03:33:08;15.90;99.90
25410;DHT22;13339;50.840;4.346;2023-05-10T03:35:34;15.80;99.90
25410;DHT22;13339;50.840;4.346;2023-05-10T03:38:00;15.80;99.90
25410;DHT22;13339;50.840;4.346;2023-05-10T03:40:26;15.80;99.90
25410;DHT22;13339;50.840;4.346;2023-05-10T03:42:54;15.80;99.90
25410;DHT22;13339;50.840;4.346;2023-05-10T03:45:20;15.90;99.90
25410;DHT22;13339;50.840;4.346;2023-05-10T03:47:46;15.90;99.90
25410;DHT22;13339;50.840;4.346;2023-05-10T03:50:12;15.90;99.90
25410;DHT22;13339;50.840;4.346;2023-05-10T03:52:37;15.90;99.90
25410;DHT22;13339;50.840;4.346;2023-05-10T03:55:05;15.90;99.90
25410;DHT22;13339;50.840;4.346;2023-05-10T03:57:31;15.80;99.90
25410;DHT22;13339;50.840;4.346;2023-05-10T03:59:57;15.90;99.90
25410;DHT22;13339;50.840;4.346;2023-05-10T04:02:23;15.90;99.90
25410;DHT22;13339;50.840;4.346;2023-05-10T04:04:49;16.00;99.90
25410;DHT22;13339;50.840;4.346;2023-05-10T04:07:14;15.90;99.90
25410;DHT22;13339;50.840;4.346;2023-05-10T04:09:40;15.90;99.90
25410;DHT22;13339;50.840;4.346;2023-05-10T04:12:06;15.90;99.90
25410;DHT22;13339;50.840;4.346;2023-05-10T04:14:31;15.90;99.90
25410;DHT22;13339;50.840;4.346;2023-05-10T04:16:57;15.90;99.90
25410;DHT22;13339;50.840;4.346;2023-05-10T04:19:23;15.90;99.90
25410;DHT22;13339;50.840;4.346;2023-05-10T04:21:49;15.90;99.90
25410;DHT22;13339;50.840;4.346;2023-05-10T04:24:14;15.90;99.90
25410;DHT22;13339;50.840;4.346;2023-05-10T04:26:40;15.80;99.90
25410;DHT22;13339;50.840;4.346;2023-05-10T04:29:06;15.90;99.90
25410;DHT22;13339;50.840;4.346;2023-05-10T04:31:31;15.80;99.90
25410;DHT22;13339;50.840;4.346;2023-05-10T04:33:57;15.80;99.90
25410;DHT22;13339;50.840;4.346;2023-05-10T04:36:23;15.70;99.90
25410;DHT22;13339;50.840;4.346;2023-05-10T04:38:48;15.80;99.90
25410;DHT22;13339;50.840;4.346;2023-05-10T04:41:14;15.80;99.90
25410;DHT22;13339;50.840;4.346;2023-05-10T04:43:40;15.70;99.90
25410;DHT22;13339;50.840;4.346;2023-05-10T04:46:06;15.80;99.90
25410;DHT22;13339;50.840;4.346;2023-05-10T04:48:32;15.70;99.90
25410;DHT22;13339;50.840;4.346;2023-05-10T04:50:58;15.80;99.90
25410;DHT22;13339;50.840;4.346;2023-05-10T04:53:24;15.80;99.90
25410;DHT22;13339;50.840;4.346;2023-05-10T04:55:50;15.90;99.90
25410;DHT22;13339;50.840;4.346;2023-05-10T04:58:15;16.00;99.90
25410;DHT22;13339;50.840;4.346;2023-05-10T05:00:41;16.00;99.90
25410;DHT22;13339;50.840;4.346;2023-05-10T05:03:07;16.10;99.90
25410;DHT22;13339;50.840;4.346;2023-05-10T05:05:33;16.10;99.90
25410;DHT22;13339;50.840;4.346;2023-05-10T05:07:59;15.90;99.90
25410;DHT22;13339;50.840;4.346;2023-05-10T05:10:24;16.00;99.90
25410;DHT22;13339;50.840;4.346;2023-05-10T05:12:50;16.00;99.90
25410;DHT22;13339;50.840;4.346;2023-05-10T05:15:16;16.10;99.90
25410;DHT22;13339;50.840;4.346;2023-05-10T05:17:42;16.00;99.90
25410;DHT22;13339;50.840;4.346;2023-05-10T05:20:09;15.80;99.90
25410;DHT22;13339;50.840;4.346;2023-05-10T05:22:36;15.60;99.90
25410;DHT22;13339;50.840;4.346;2023-05-10T05:25:02;15.60;99.90
25410;DHT22;13339;50.840;4.346;2023-05-10T05:27:29;15.60;99.90
25410;DHT22;13339;50.840;4.346;2023-05-10T05:29:58;15.60;99.90
25410;DHT22;13339;50.840;4.346;2023-05-10T05:32:24;15.70;99.90
25410;DHT22;13339;50.840;4.346;2023-05-10T05:34:51;15.70;99.90
25410;DHT22;13339;50.840;4.346;2023-05-10T05:37:20;15.60;99.90
25410;DHT22;13339;50.840;4.346;2023-05-10T05:39:47;15.60;99.90
25410;DHT22;13339;50.840;4.346;2023-05-10T05:42:13;15.60;99.90
25410;DHT22;13339;50.840;4.346;2023-05-10T05:44:40;15.60;99.90
25410;DHT22;13339;50.840;4.346;2023-05-10T05:47:05;15.60;99.90
25410;DHT22;13339;50.840;4.346;2023-05-10T05:49:32;15.60;99.90
25410;DHT22;13339;50.840;4.346;2023-05-10T05:52:02;15.60;99.90
25410;DHT22;13339;50.840;4.346;2023-05-10T05:54:29;15.70;99.90
25410;DHT22;13339;50.840;4.346;2023-05-10T05:56:56;15.60;99.90
25410;DHT22;13339;50.840;4.346;2023-05-10T05:59:22;15.60;99.90
25410;DHT22;13339;50.840;4.346;2023-05-10T06:01:48;15.50;99.90
25410;DHT22;13339;50.840;4.346;2023-05-10T06:04:14;15.60;99.90
25410;DHT22;13339;50.840;4.346;2023-05-10T06:06:40;15.70;99.90
25410;DHT22;13339;50.840;4.346;2023-05-10T06:09:05;15.70;99.90
25410;DHT22;13339;50.840;4.346;2023-05-10T06:11:31;15.70;99.90
25410;DHT22;13339;50.840;4.346;2023-05-10T06:14:00;15.80;99.90
25410;DHT22;13339;50.840;4.346;2023-05-10T06:16:25;15.70;99.90
25410;DHT22;13339;50.840;4.346;2023-05-10T06:18:51;15.70;99.90
25410;DHT22;13339;50.840;4.346;2023-05-10T06:21:17;15.60;99.90
25410;DHT22;13339;50.840;4.346;2023-05-10T06:23:42;15.60;99.90
25410;DHT22;13339;50.840;4.346;2023-05-10T06:26:09;15.60;99.90
25410;DHT22;13339;50.840;4.346;2023-05-10T06:28:35;15.50;99.90
25410;DHT22;13339;50.840;4.346;2023-05-10T06:31:03;15.50;99.90
25410;DHT22;13339;50.840;4.346;2023-05-10T06:33:29;15.50;99.90
25410;DHT22;13339;50.840;4.346;2023-05-10T06:35:54;15.50;99.90
25410;DHT22;13339;50.840;4.346;2023-05-10T06:38:20;15.50;99.90
25410;DHT22;13339;50.840;4.346;2023-05-10T06:40:46;15.50;99.90
25410;DHT22;13339;50.840;4.346;2023-05-10T06:43:11;15.50;99.90
25410;DHT22;13339;50.840;4.346;2023-05-10T06:45:37;15.60;99.90
25410;DHT22;13339;50.840;4.346;2023-05-10T06:48:03;15.60;99.90
25410;DHT22;13339;50.840;4.346;2023-05-10T06:50:28;15.50;99.90
25410;DHT22;13339;50.840;4.346;2023-05-10T06:52:54;15.40;99.90
25410;DHT22;13339;50.840;4.346;2023-05-10T06:55:21;15.50;99.90
25410;DHT22;13339;50.840;4.346;2023-05-10T06:57:46;15.40;99.90
25410;DHT22;13339;50.840;4.346;2023-05-10T07:00:13;15.60;99.90
25410;DHT22;13339;50.840;4.346;2023-05-10T07:02:39;15.60;99.90
25410;DHT22;13339;50.840;4.346;2023-05-10T07:05:05;15.50;99.90
25410;DHT22;13339;50.840;4.346;2023-05-10T07:07:31;15.50;99.90
25410;DHT22;13339;50.840;4.346;2023-05-10T07:09:57;15.50;99.90
25410;DHT22;13339;50.840;4.346;2023-05-10T07:12:23;15.60;99.90
25410;DHT22;13339;50.840;4.346;2023-05-10T07:14:49;15.60;99.90
25410;DHT22;13339;50.840;4.346;2023-05-10T07:17:15;15.60;99.90
25410;DHT22;13339;50.840;4.346;2023-05-10T07:19:41;15.60;99.90
25410;DHT22;13339;50.840;4.346;2023-05-10T07:22:06;15.60;99.90
25410;DHT22;13339;50.840;4.346;2023-05-10T07:24:33;15.50;99.90
25410;DHT22;13339;50.840;4.346;2023-05-10T07:26:59;15.40;99.90
25410;DHT22;13339;50.840;4.346;2023-05-10T07:29:24;15.50;99.90
25410;DHT22;13339;50.840;4.346;2023-05-10T07:31:50;15.40;99.90
25410;DHT22;13339;50.840;4.346;2023-05-10T07:34:16;15.30;99.90
25410;DHT22;13339;50.840;4.346;2023-05-10T07:36:41;15.30;99.90
25410;DHT22;13339;50.840;4.346;2023-05-10T07:39:07;15.50;99.90
25410;DHT22;13339;50.840;4.346;2023-05-10T07:41:33;15.50;99.90
25410;DHT22;13339;50.840;4.346;2023-05-10T07:43:58;15.60;99.90
25410;DHT22;13339;50.840;4.346;2023-05-10T07:46:24;15.60;99.90
25410;DHT22;13339;50.840;4.346;2023-05-10T07:48:50;15.50;99.90
25410;DHT22;13339;50.840;4.346;2023-05-10T07:51:15;15.50;99.90
25410;DHT22;13339;50.840;4.346;2023-05-10T07:53:41;15.60;99.90
25410;DHT22;13339;50.840;4.346;2023-05-10T07:56:45;15.60;99.90
25410;DHT22;13339;50.840;4.346;2023-05-10T07:59:16;15.70;99.90
25410;DHT22;13339;50.840;4.346;2023-05-10T08:01:43;15.70;99.90
25410;DHT22;13339;50.840;4.346;2023-05-10T08:04:08;15.80;99.90
25410;DHT22;13339;50.840;4.346;2023-05-10T08:06:34;15.90;99.90
25410;DHT22;13339;50.840;4.346;2023-05-10T08:09:00;15.90;99.90
25410;DHT22;13339;50.840;4.346;2023-05-10T08:11:25;16.00;99.90
25410;DHT22;13339;50.840;4.346;2023-05-10T08:13:53;15.90;99.90
25410;DHT22;13339;50.840;4.346;2023-05-10T08:16:19;16.00;99.90
25410;DHT22;13339;50.840;4.346;2023-05-10T08:18:45;16.00;99.90
25410;DHT22;13339;50.840;4.346;2023-05-10T08:21:14;16.10;99.90
25410;DHT22;13339;50.840;4.346;2023-05-10T08:23:39;16.20;99.90
25410;DHT22;13339;50.840;4.346;2023-05-10T08:26:06;16.20;99.90
25410;DHT22;13339;50.840;4.346;2023-05-10T08:28:32;16.20;99.90
25410;DHT22;13339;50.840;4.346;2023-05-10T08:30:57;16.30;99.90
25410;DHT22;13339;50.840;4.346;2023-05-10T08:33:23;16.10;99.90
25410;DHT22;13339;50.840;4.346;2023-05-10T08:35:49;16.20;99.90
25410;DHT22;13339;50.840;4.346;2023-05-10T08:38:14;16.10;99.90
25410;DHT22;13339;50.840;4.346;2023-05-10T08:40:43;16.10;99.90
25410;DHT22;13339;50.840;4.346;2023-05-10T08:43:12;16.20;99.90
25410;DHT22;13339;50.840;4.346;2023-05-10T08:45:40;16.40;99.90
25410;DHT22;13339;50.840;4.346;2023-05-10T08:48:07;16.40;99.90
25410;DHT22;13339;50.840;4.346;2023-05-10T08:50:36;16.50;99.90
25410;DHT22;13339;50.840;4.346;2023-05-10T08:53:04;16.40;99.90
25410;DHT22;13339;50.840;4.346;2023-05-10T08:55:31;16.50;99.90
25410;DHT22;13339;50.840;4.346;2023-05-10T08:57:58;16.60;99.90
25410;DHT22;13339;50.840;4.346;2023-05-10T09:00:25;16.50;99.90
25410;DHT22;13339;50.840;4.346;2023-05-10T09:02:50;16.60;99.90
25410;DHT22;13339;50.840;4.346;2023-05-10T09:05:16;16.60;99.90
25410;DHT22;13339;50.840;4.346;2023-05-10T09:07:43;16.60;99.90
25410;DHT22;13339;50.840;4.346;2023-05-10T09:10:09;16.50;99.90
25410;DHT22;13339;50.840;4.346;2023-05-10T09:12:36;16.50;99.90
25410;DHT22;13339;50.840;4.346;2023-05-10T09:15:02;16.50;99.90
25410;DHT22;13339;50.840;4.346;2023-05-10T09:17:29;16.40;99.90
25410;DHT22;13339;50.840;4.346;2023-05-10T09:20:02;16.30;99.90
25410;DHT22;13339;50.840;4.346;2023-05-10T09:22:30;16.30;99.90
25410;DHT22;13339;50.840;4.346;2023-05-10T09:25:10;16.30;99.90
25410;DHT22;13339;50.840;4.346;2023-05-10T09:27:37;16.40;99.90
25410;DHT22;13339;50.840;4.346;2023-05-10T09:30:04;16.30;99.90
25410;DHT22;13339;50.840;4.346;2023-05-10T09:32:44;16.40;99.90
25410;DHT22;13339;50.840;4.346;2023-05-10T09:35:15;16.30;99.90
25410;DHT22;13339;50.840;4.346;2023-05-10T09:37:42;16.20;99.90
25410;DHT22;13339;50.840;4.346;2023-05-10T09:40:13;16.20;99.90
25410;DHT22;13339;50.840;4.346;2023-05-10T09:42:42;16.30;99.90
25410;DHT22;13339;50.840;4.346;2023-05-10T09:45:08;16.30;99.90
25410;DHT22;13339;50.840;4.346;2023-05-10T09:47:34;16.20;99.90
25410;DHT22;13339;50.840;4.346;2023-05-10T09:50:02;16.30;99.90
25410;DHT22;13339;50.840;4.346;2023-05-10T09:55:13;16.30;99.90
25410;DHT22;13339;50.840;4.346;2023-05-10T09:57:39;16.20;99.90
25410;DHT22;13339;50.840;4.346;2023-05-10T10:00:05;16.20;99.90
25410;DHT22;13339;50.840;4.346;2023-05-10T10:02:31;16.20;99.90
25410;DHT22;13339;50.840;4.346;2023-05-10T10:04:57;16.20;99.90
25410;DHT22;13339;50.840;4.346;2023-05-10T10:07:23;16.10;99.90
25410;DHT22;13339;50.840;4.346;2023-05-10T10:09:51;16.20;99.90
25410;DHT22;13339;50.840;4.346;2023-05-10T10:12:17;16.10;99.90
25410;DHT22;13339;50.840;4.346;2023-05-10T10:14:43;16.20;99.90
25410;DHT22;13339;50.840;4.346;2023-05-10T10:17:09;16.20;99.90
25410;DHT22;13339;50.840;4.346;2023-05-10T10:19:35;16.30;99.90
25410;DHT22;13339;50.840;4.346;2023-05-10T10:22:01;16.30;99.90
25410;DHT22;13339;50.840;4.346;2023-05-10T10:24:28;16.30;99.90
25410;DHT22;13339;50.840;4.346;2023-05-10T10:26:59;16.20;99.90
25410;DHT22;13339;50.840;4.346;2023-05-10T10:29:39;16.20;99.90
25410;DHT22;13339;50.840;4.346;2023-05-10T10:32:32;16.30;99.90
25410;DHT22;13339;50.840;4.346;2023-05-10T10:35:01;16.20;99.90
25410;DHT22;13339;50.840;4.346;2023-05-10T10:37:45;16.20;99.90
25410;DHT22;13339;50.840;4.346;2023-05-10T10:40:43;16.30;99.90
25410;DHT22;13339;50.840;4.346;2023-05-10T10:43:26;16.40;99.90
25410;DHT22;13339;50.840;4.346;2023-05-10T10:46:17;16.50;99.90
25410;DHT22;13339;50.840;4.346;2023-05-10T10:49:09;16.50;99.90
25410;DHT22;13339;50.840;4.346;2023-05-10T10:51:38;16.60;99.90
25410;DHT22;13339;50.840;4.346;2023-05-10T10:54:10;16.70;99.90
25410;DHT22;13339;50.840;4.346;2023-05-10T10:56:36;16.60;99.90
25410;DHT22;13339;50.840;4.346;2023-05-10T10:59:02;16.70;99.90
25410;DHT22;13339;50.840;4.346;2023-05-10T11:01:33;16.80;99.90
25410;DHT22;13339;50.840;4.346;2023-05-10T11:06:33;17.10;99.90
25410;DHT22;13339;50.840;4.346;2023-05-10T11:08:59;17.00;99.90
25410;DHT22;13339;50.840;4.346;2023-05-10T11:11:30;17.10;99.90
25410;DHT22;13339;50.840;4.346;2023-05-10T11:14:03;17.00;99.90
25410;DHT22;13339;50.840;4.346;2023-05-10T11:16:43;17.10;99.90
25410;DHT22;13339;50.840;4.346;2023-05-10T11:19:11;17.10;99.90
25410;DHT22;13339;50.840;4.346;2023-05-10T11:21:51;17.20;99.90
25410;DHT22;13339;50.840;4.346;2023-05-10T11:24:22;17.30;99.90
25410;DHT22;13339;50.840;4.346;2023-05-10T11:26:51;17.30;99.90
25410;DHT22;13339;50.840;4.346;2023-05-10T11:29:17;17.40;99.90
25410;DHT22;13339;50.840;4.346;2023-05-10T11:31:44;17.50;99.90
25410;DHT22;13339;50.840;4.346;2023-05-10T11:36:53;17.60;99.90
25410;DHT22;13339;50.840;4.346;2023-05-10T11:39:25;17.80;99.90
25410;DHT22;13339;50.840;4.346;2023-05-10T11:41:51;17.70;99.90
25410;DHT22;13339;50.840;4.346;2023-05-10T11:44:17;17.80;99.90
25410;DHT22;13339;50.840;4.346;2023-05-10T11:46:42;17.90;99.90
25410;DHT22;13339;50.840;4.346;2023-05-10T11:49:08;18.00;99.90
25410;DHT22;13339;50.840;4.346;2023-05-10T11:51:35;18.10;99.90
25410;DHT22;13339;50.840;4.346;2023-05-10T11:54:09;18.10;99.90
25410;DHT22;13339;50.840;4.346;2023-05-10T11:56:39;18.30;99.90
25410;DHT22;13339;50.840;4.346;2023-05-10T11:59:05;18.40;99.90
25410;DHT22;13339;50.840;4.346;2023-05-10T12:01:31;18.40;99.90
25410;DHT22;13339;50.840;4.346;2023-05-10T12:03:58;18.50;99.90
25410;DHT22;13339;50.840;4.346;2023-05-10T12:06:30;18.50;99.90
25410;DHT22;13339;50.840;4.346;2023-05-10T12:08:56;18.40;99.90
25410;DHT22;13339;50.840;4.346;2023-05-10T12:11:25;18.60;99.90
25410;DHT22;13339;50.840;4.346;2023-05-10T12:13:51;18.70;99.90
25410;DHT22;13339;50.840;4.346;2023-05-10T12:16:19;18.60;99.90
25410;DHT22;13339;50.840;4.346;2023-05-10T12:18:49;18.60;99.90
25410;DHT22;13339;50.840;4.346;2023-05-10T12:21:15;18.70;99.90
25410;DHT22;13339;50.840;4.346;2023-05-10T12:23:41;18.70;99.90
25410;DHT22;13339;50.840;4.346;2023-05-10T12:26:09;18.90;99.90
25410;DHT22;13339;50.840;4.346;2023-05-10T12:28:36;19.00;99.90
25410;DHT22;13339;50.840;4.346;2023-05-10T12:31:02;19.10;99.90
25410;DHT22;13339;50.840;4.346;2023-05-10T12:33:39;19.20;99.90
25410;DHT22;13339;50.840;4.346;2023-05-10T12:36:05;19.30;99.90
25410;DHT22;13339;50.840;4.346;2023-05-10T12:38:37;19.50;99.90
25410;DHT22;13339;50.840;4.346;2023-05-10T12:41:11;19.70;99.90
25410;DHT22;13339;50.840;4.346;2023-05-10T12:43:37;19.80;99.90
25410;DHT22;13339;50.840;4.346;2023-05-10T12:46:10;19.90;99.90
25410;DHT22;13339;50.840;4.346;2023-05-10T12:48:37;20.00;99.90
25410;DHT22;13339;50.840;4.346;2023-05-10T12:51:04;20.10;99.90
25410;DHT22;13339;50.840;4.346;2023-05-10T12:53:30;20.30;99.90
25410;DHT22;13339;50.840;4.346;2023-05-10T12:55:56;20.40;99.90
25410;DHT22;13339;50.840;4.346;2023-05-10T12:58:22;20.50;99.90
25410;DHT22;13339;50.840;4.346;2023-05-10T13:00:48;20.60;99.90
25410;DHT22;13339;50.840;4.346;2023-05-10T13:03:14;20.60;99.90
25410;DHT22;13339;50.840;4.346;2023-05-10T13:05:41;20.50;99.90
25410;DHT22;13339;50.840;4.346;2023-05-10T13:08:06;20.60;99.90
25410;DHT22;13339;50.840;4.346;2023-05-10T13:10:32;20.80;99.90
25410;DHT22;13339;50.840;4.346;2023-05-10T13:12:58;20.90;99.90
25410;DHT22;13339;50.840;4.346;2023-05-10T13:15:24;20.90;99.90
25410;DHT22;13339;50.840;4.346;2023-05-10T13:17:50;20.90;99.90
25410;DHT22;13339;50.840;4.346;2023-05-10T13:20:16;21.10;99.90
25410;DHT22;13339;50.840;4.346;2023-05-10T13:22:43;21.10;99.90
25410;DHT22;13339;50.840;4.346;2023-05-10T13:25:09;21.30;99.90
25410;DHT22;13339;50.840;4.346;2023-05-10T13:27:35;21.30;99.90
25410;DHT22;13339;50.840;4.346;2023-05-10T13:30:01;21.20;99.90
25410;DHT22;13339;50.840;4.346;2023-05-10T13:32:28;21.10;99.90
25410;DHT22;13339;50.840;4.346;2023-05-10T13:34:55;21.00;99.90
25410;DHT22;13339;50.840;4.346;2023-05-10T13:37:20;21.00;99.90
25410;DHT22;13339;50.840;4.346;2023-05-10T13:39:47;21.00;99.90
25410;DHT22;13339;50.840;4.346;2023-05-10T13:42:12;21.00;99.90
25410;DHT22;13339;50.840;4.346;2023-05-10T13:44:38;21.00;99.90
25410;DHT22;13339;50.840;4.346;2023-05-10T13:47:04;21.00;99.90
25410;DHT22;13339;50.840;4.346;2023-05-10T13:49:30;21.00;99.90
25410;DHT22;13339;50.840;4.346;2023-05-10T13:51:56;20.80;99.90
25410;DHT22;13339;50.840;4.346;2023-05-10T13:54:21;20.80;99.90
25410;DHT22;13339;50.840;4.346;2023-05-10T13:56:47;20.90;99.90
25410;DHT22;13339;50.840;4.346;2023-05-10T13:59:14;20.80;99.90
25410;DHT22;13339;50.840;4.346;2023-05-10T14:01:40;20.70;99.90
25410;DHT22;13339;50.840;4.346;2023-05-10T14:04:06;20.70;99.90
25410;DHT22;13339;50.840;4.346;2023-05-10T14:06:35;20.70;99.90
25410;DHT22;13339;50.840;4.346;2023-05-10T14:09:02;20.80;99.90
25410;DHT22;13339;50.840;4.346;2023-05-10T14:11:28;20.70;99.90
25410;DHT22;13339;50.840;4.346;2023-05-10T14:13:53;20.70;99.90
25410;DHT22;13339;50.840;4.346;2023-05-10T14:16:19;20.60;99.90
25410;DHT22;13339;50.840;4.346;2023-05-10T14:18:45;20.40;99.90
25410;DHT22;13339;50.840;4.346;2023-05-10T14:21:11;20.30;99.90
25410;DHT22;13339;50.840;4.346;2023-05-10T14:23:37;20.30;99.90
25410;DHT22;13339;50.840;4.346;2023-05-10T14:26:03;20.30;99.90
25410;DHT22;13339;50.840;4.346;2023-05-10T14:28:28;20.30;99.90
25410;DHT22;13339;50.840;4.346;2023-05-10T14:30:54;20.30;99.90
25410;DHT22;13339;50.840;4.346;2023-05-10T14:33:19;20.40;99.90
25410;DHT22;13339;50.840;4.346;2023-05-10T14:35:46;20.40;99.90
25410;DHT22;13339;50.840;4.346;2023-05-10T14:38:12;20.50;99.90
25410;DHT22;13339;50.840;4.346;2023-05-10T14:40:38;20.60;99.90
25410;DHT22;13339;50.840;4.346;2023-05-10T14:43:03;20.70;99.90
25410;DHT22;13339;50.840;4.346;2023-05-10T14:45:29;20.60;99.90
25410;DHT22;13339;50.840;4.346;2023-05-10T14:47:55;20.50;99.90
25410;DHT22;13339;50.840;4.346;2023-05-10T14:50:20;20.30;99.90
25410;DHT22;13339;50.840;4.346;2023-05-10T14:52:46;20.30;99.90
25410;DHT22;13339;50.840;4.346;2023-05-10T14:55:12;19.90;99.90
25410;DHT22;13339;50.840;4.346;2023-05-10T14:57:37;19.80;99.90
25410;DHT22;13339;50.840;4.346;2023-05-10T15:00:04;19.70;99.90
25410;DHT22;13339;50.840;4.346;2023-05-10T15:02:31;19.70;99.90
25410;DHT22;13339;50.840;4.346;2023-05-10T15:04:57;19.60;99.90
25410;DHT22;13339;50.840;4.346;2023-05-10T15:07:23;19.40;99.90
25410;DHT22;13339;50.840;4.346;2023-05-10T15:09:50;19.10;99.90
25410;DHT22;13339;50.840;4.346;2023-05-10T15:12:17;18.90;99.90
25410;DHT22;13339;50.840;4.346;2023-05-10T15:14:43;18.70;99.90
25410;DHT22;13339;50.840;4.346;2023-05-10T15:17:08;18.60;99.90
25410;DHT22;13339;50.840;4.346;2023-05-10T15:19:34;18.50;99.90
25410;DHT22;13339;50.840;4.346;2023-05-10T15:22:00;18.50;99.90
25410;DHT22;13339;50.840;4.346;2023-05-10T15:24:25;18.50;99.90
25410;DHT22;13339;50.840;4.346;2023-05-10T15:26:51;18.30;99.90
25410;DHT22;13339;50.840;4.346;2023-05-10T15:29:16;18.40;99.90
25410;DHT22;13339;50.840;4.346;2023-05-10T15:31:48;18.30;99.90
25410;DHT22;13339;50.840;4.346;2023-05-10T15:34:15;18.20;99.90
25410;DHT22;13339;50.840;4.346;2023-05-10T15:36:41;18.30;99.90
25410;DHT22;13339;50.840;4.346;2023-05-10T15:39:06;18.40;99.90
25410;DHT22;13339;50.840;4.346;2023-05-10T15:41:32;18.50;99.90
25410;DHT22;13339;50.840;4.346;2023-05-10T15:43:58;18.50;99.90
25410;DHT22;13339;50.840;4.346;2023-05-10T15:46:25;18.60;99.90
25410;DHT22;13339;50.840;4.346;2023-05-10T15:48:51;18.50;99.90
25410;DHT22;13339;50.840;4.346;2023-05-10T15:51:17;18.60;99.90
25410;DHT22;13339;50.840;4.346;2023-05-10T15:53:44;18.40;99.90
25410;DHT22;13339;50.840;4.346;2023-05-10T15:56:10;18.50;99.90